Time;durP1;ratioP1;P1;durP2;ratioP2;P2;SDS_P1;SDS_P2;PMS_P1;PMS_P2;Temp;Humidity;BMP_temperature;BMP_pressure;BME280_temperature;BME280_humidity;BME280_pressure;Samples;Min_cycle;Max_cycle;Signal;HPM_P1;HPM_P2
2022/05/22 00:00:13;;;;;;;4.30;2.37;;;;;;;;;;519563;28;1528;-86
2022/05/22 00:00:28;;;;;;;4.22;2.42;;;;;;;;;;520939;28;1284;-87
2022/05/22 00:00:44;;;;;;;5.95;2.60;;;;;;;;;;518531;28;1801;-86
2022/05/22 00:00:59;;;;;;;5.70;2.60;;;;;;;;;;518876;28;1507;-88
2022/05/22 00:01:15;;;;;;;7.80;2.63;;;;;;;;;;517623;28;1436;-88
2022/05/22 00:01:31;;;;;;;7.97;2.60;;;;;;;;;;517478;28;1394;-87
2022/05/22 00:01:46;;;;;;;4.27;2.50;;;;;;;;;;517638;28;1407;-87
2022/05/22 00:02:02;;;;;;;5.13;2.60;;;;;;;;;;517396;28;1462;-88
2022/05/22 00:02:17;;;;;;;6.85;2.83;;;;;;;;;;515493;28;1418;-88
2022/05/22 00:02:34;;;;;;;7.03;2.90;;;;;;;;;;514946;28;1618;-88
2022/05/22 00:02:51;;;;;;;7.13;2.88;;;;;;;;;;517070;28;1456;-87
2022/05/22 00:03:08;;;;;;;7.05;2.92;;;;;;;;;;513695;28;1418;-87
2022/05/22 00:03:23;;;;;;;4.78;2.72;;;;;;;;;;516114;28;1337;-87
2022/05/22 00:03:38;;;;;;;4.50;2.60;;;;;;;;;;516016;28;1598;-88
2022/05/22 00:03:54;;;;;;;4.95;2.60;;;;;;;;;;514076;28;1391;-87
2022/05/22 00:04:10;;;;;;;5.47;2.60;;;;;;;;;;515762;28;1473;-87
2022/05/22 00:04:26;;;;;;;5.40;2.60;;;;;;;;;;515471;28;1402;-87
2022/05/22 00:04:41;;;;;;;5.80;2.65;;;;;;;;;;514184;28;1381;-87
2022/05/22 00:04:57;;;;;;;6.65;2.75;;;;;;;;;;516201;28;1329;-87
2022/05/22 00:05:17;;;;;;;5.53;2.53;;;;;;;;;;515545;28;1433;-87
2022/05/22 00:05:32;;;;;;;5.72;2.55;;;;;;;;;;517400;28;1554;-87
2022/05/22 00:05:48;;;;;;;5.63;2.80;;;;;;;;;;518968;28;1424;-87
2022/05/22 00:06:03;;;;;;;5.73;3.00;;;;;;;;;;519333;28;1547;-87
2022/05/22 00:06:20;;;;;;;5.70;3.00;;;;;;;;;;519895;28;1440;-87
2022/05/22 00:06:36;;;;;;;6.35;2.90;;;;;;;;;;517760;28;1406;-87
2022/05/22 00:06:51;;;;;;;6.40;2.72;;;;;;;;;;518213;28;1453;-87
2022/05/22 00:07:07;;;;;;;7.38;2.90;;;;;;;;;;517652;28;1562;-87
2022/05/22 00:07:22;;;;;;;6.47;2.63;;;;;;;;;;519788;28;1440;-87
2022/05/22 00:07:38;;;;;;;5.53;2.60;;;;;;;;;;521209;28;1429;-87
2022/05/22 00:07:53;;;;;;;5.53;2.80;;;;;;;;;;520203;28;1167;-87
2022/05/22 00:08:09;;;;;;;4.85;2.70;;;;;;;;;;520095;28;1553;-87
2022/05/22 00:08:24;;;;;;;5.23;2.63;;;;;;;;;;520495;28;1694;-87
2022/05/22 00:08:40;;;;;;;6.05;2.58;;;;;;;;;;517660;28;1485;-86
2022/05/22 00:08:55;;;;;;;6.53;2.70;;;;;;;;;;519343;28;1212;-87
2022/05/22 00:09:11;;;;;;;5.72;2.88;;;;;;;;;;517011;28;1365;-87
2022/05/22 00:09:28;;;;;;;6.17;2.87;;;;;;;;;;514535;28;1475;-88
2022/05/22 00:09:43;;;;;;;5.93;2.80;;;;;;;;;;514908;28;1703;-87
2022/05/22 00:10:01;;;;;;;5.37;2.70;;;;;;;;;;512184;28;1723;-88
2022/05/22 00:10:17;;;;;;;6.00;2.70;;;;;;;;;;514673;28;1422;-87
2022/05/22 00:10:32;;;;;;;5.32;2.67;;;;;;;;;;514693;28;1797;-87
2022/05/22 00:10:48;;;;;;;5.03;2.50;;;;;;;;;;515964;28;1350;-87
2022/05/22 00:11:03;;;;;;;5.23;2.67;;;;;;;;;;517083;28;1337;-88
2022/05/22 00:11:19;;;;;;;5.80;2.80;;;;;;;;;;517766;28;1490;-88
2022/05/22 00:11:34;;;;;;;6.27;2.87;;;;;;;;;;517376;28;1452;-87
2022/05/22 00:11:50;;;;;;;5.33;2.60;;;;;;;;;;517494;28;1693;-87
2022/05/22 00:12:08;;;;;;;5.30;2.60;;;;;;;;;;518355;28;1512;-87
2022/05/22 00:12:23;;;;;;;5.85;2.60;;;;;;;;;;517264;28;1406;-87
2022/05/22 00:12:40;;;;;;;5.18;2.55;;;;;;;;;;518075;28;1434;-87
2022/05/22 00:12:56;;;;;;;4.60;2.50;;;;;;;;;;517464;28;1579;-87
2022/05/22 00:13:11;;;;;;;4.60;2.50;;;;;;;;;;518279;28;1374;-87
2022/05/22 00:13:27;;;;;;;5.23;2.50;;;;;;;;;;516748;28;1530;-87
2022/05/22 00:13:42;;;;;;;5.70;2.60;;;;;;;;;;517115;28;1931;-87
2022/05/22 00:13:58;;;;;;;5.25;2.63;;;;;;;;;;516620;28;1437;-87
2022/05/22 00:14:13;;;;;;;5.13;2.80;;;;;;;;;;517294;28;1414;-87
2022/05/22 00:14:29;;;;;;;5.63;2.63;;;;;;;;;;517719;28;1580;-87
2022/05/22 00:14:44;;;;;;;6.38;2.45;;;;;;;;;;518339;28;1439;-87
2022/05/22 00:15:00;;;;;;;5.93;2.60;;;;;;;;;;522075;28;1412;-87
2022/05/22 00:15:16;;;;;;;5.23;2.60;;;;;;;;;;520789;28;1396;-87
2022/05/22 00:15:31;;;;;;;5.38;2.65;;;;;;;;;;522209;28;1534;-87
2022/05/22 00:16:55;;;;;;;4.03;2.50;;;;;;;;;;520006;28;1455;-87
2022/05/22 00:17:11;;;;;;;5.85;2.50;;;;;;;;;;518847;28;1259;-87
2022/05/22 00:17:27;;;;;;;7.65;2.72;;;;;;;;;;521076;28;1417;-86
2022/05/22 00:17:43;;;;;;;7.17;2.93;;;;;;;;;;520525;28;1521;-87
2022/05/22 00:17:58;;;;;;;6.43;2.78;;;;;;;;;;519364;28;1655;-87
2022/05/22 00:18:15;;;;;;;6.97;2.60;;;;;;;;;;518813;28;1242;-87
2022/05/22 00:18:31;;;;;;;6.57;2.80;;;;;;;;;;517825;28;1429;-87
2022/05/22 00:18:46;;;;;;;5.07;2.60;;;;;;;;;;518819;28;1302;-88
2022/05/22 00:19:04;;;;;;;4.97;2.67;;;;;;;;;;518153;28;1226;-87
2022/05/22 00:19:22;;;;;;;4.97;2.53;;;;;;;;;;518664;28;1583;-88
2022/05/22 00:19:38;;;;;;;5.37;2.53;;;;;;;;;;520288;28;1450;-87
2022/05/22 00:19:54;;;;;;;5.22;2.60;;;;;;;;;;521087;28;1419;-87
2022/05/22 00:20:10;;;;;;;5.40;2.60;;;;;;;;;;521430;28;1547;-87
2022/05/22 00:20:26;;;;;;;5.57;2.53;;;;;;;;;;520821;28;1469;-87
2022/05/22 00:20:41;;;;;;;5.00;2.47;;;;;;;;;;519460;28;1420;-87
2022/05/22 00:20:56;;;;;;;4.38;2.30;;;;;;;;;;519527;28;1268;-87
2022/05/22 00:21:14;;;;;;;4.30;2.30;;;;;;;;;;518402;28;1510;-87
2022/05/22 00:21:29;;;;;;;5.35;2.50;;;;;;;;;;521318;28;1514;-88
2022/05/22 00:21:45;;;;;;;6.68;2.55;;;;;;;;;;519651;28;1586;-88
2022/05/22 00:22:00;;;;;;;6.40;2.43;;;;;;;;;;520383;28;1523;-87
2022/05/22 00:22:17;;;;;;;6.57;2.55;;;;;;;;;;521065;28;1349;-87
2022/05/22 00:22:32;;;;;;;6.22;2.63;;;;;;;;;;519946;28;1419;-87
2022/05/22 00:22:48;;;;;;;6.40;2.60;;;;;;;;;;518306;28;1482;-88
2022/05/22 00:23:03;;;;;;;6.70;2.50;;;;;;;;;;517338;28;1443;-87
2022/05/22 00:23:19;;;;;;;6.53;2.50;;;;;;;;;;518523;28;1359;-87
2022/05/22 00:23:34;;;;;;;6.27;2.67;;;;;;;;;;516086;28;1305;-87
2022/05/22 00:23:50;;;;;;;5.13;2.60;;;;;;;;;;514827;28;1356;-87
2022/05/22 00:24:06;;;;;;;5.43;2.50;;;;;;;;;;517427;28;1249;-87
2022/05/22 00:24:24;;;;;;;5.90;2.58;;;;;;;;;;516346;28;1473;-87
2022/05/22 00:24:39;;;;;;;5.75;2.60;;;;;;;;;;515212;28;1559;-87
2022/05/22 00:24:55;;;;;;;5.57;2.50;;;;;;;;;;516882;28;1228;-87
2022/05/22 00:25:13;;;;;;;4.85;2.47;;;;;;;;;;515983;28;1229;-87
2022/05/22 00:25:28;;;;;;;4.20;2.40;;;;;;;;;;515799;28;1491;-87
2022/05/22 00:25:43;;;;;;;4.50;2.38;;;;;;;;;;515870;28;1417;-87
2022/05/22 00:25:59;;;;;;;4.83;2.30;;;;;;;;;;517313;28;1446;-87
2022/05/22 00:26:14;;;;;;;4.50;2.40;;;;;;;;;;519736;28;1196;-88
2022/05/22 00:26:30;;;;;;;3.78;2.50;;;;;;;;;;518438;28;1454;-87
2022/05/22 00:26:46;;;;;;;5.00;2.50;;;;;;;;;;517265;28;1493;-87
2022/05/22 00:27:03;;;;;;;7.70;2.60;;;;;;;;;;517100;28;1329;-87
2022/05/22 00:27:19;;;;;;;6.60;2.50;;;;;;;;;;516065;28;1271;-87
2022/05/22 00:27:34;;;;;;;5.22;2.40;;;;;;;;;;517732;28;1268;-87
2022/05/22 00:27:49;;;;;;;5.00;2.50;;;;;;;;;;513931;28;1231;-87
2022/05/22 00:28:05;;;;;;;4.10;2.40;;;;;;;;;;514817;28;890;-87
2022/05/22 00:28:20;;;;;;;4.40;2.50;;;;;;;;;;516438;28;1313;-87
2022/05/22 00:28:36;;;;;;;4.45;2.45;;;;;;;;;;515836;28;1491;-87
2022/05/22 00:28:51;;;;;;;4.73;2.50;;;;;;;;;;515106;28;1445;-87
2022/05/22 00:29:07;;;;;;;4.68;2.33;;;;;;;;;;516147;28;854;-87
2022/05/22 00:29:22;;;;;;;6.20;2.37;;;;;;;;;;515186;28;1422;-87
2022/05/22 00:29:38;;;;;;;6.40;2.60;;;;;;;;;;515857;28;1287;-86
2022/05/22 00:29:54;;;;;;;4.38;2.50;;;;;;;;;;516834;28;1523;-87
2022/05/22 00:30:11;;;;;;;4.40;2.60;;;;;;;;;;517554;28;1331;-86
2022/05/22 00:30:27;;;;;;;5.43;2.67;;;;;;;;;;519970;28;1449;-87
2022/05/22 00:30:42;;;;;;;5.03;2.43;;;;;;;;;;520057;28;1182;-87
2022/05/22 00:30:57;;;;;;;4.80;2.47;;;;;;;;;;519164;28;2596;-88
2022/05/22 00:31:13;;;;;;;5.70;2.50;;;;;;;;;;519205;28;1553;-87
2022/05/22 00:31:28;;;;;;;4.73;2.30;;;;;;;;;;517479;28;1282;-88
2022/05/22 00:31:44;;;;;;;4.28;2.30;;;;;;;;;;517271;28;1458;-87
2022/05/22 00:31:59;;;;;;;4.80;2.40;;;;;;;;;;515771;28;1156;-87
2022/05/22 00:32:15;;;;;;;4.75;2.40;;;;;;;;;;517095;28;1503;-87
2022/05/22 00:32:30;;;;;;;4.80;2.33;;;;;;;;;;514200;28;1682;-87
2022/05/22 00:32:45;;;;;;;5.28;2.45;;;;;;;;;;514873;28;1327;-87
2022/05/22 00:33:02;;;;;;;4.63;2.40;;;;;;;;;;517302;28;1261;-87
2022/05/22 00:33:17;;;;;;;3.75;2.50;;;;;;;;;;515906;28;1259;-87
2022/05/22 00:33:33;;;;;;;4.73;2.57;;;;;;;;;;515548;28;1253;-86
2022/05/22 00:33:48;;;;;;;6.13;2.60;;;;;;;;;;517580;28;1910;-88
2022/05/22 00:34:04;;;;;;;6.53;2.60;;;;;;;;;;519975;28;1328;-87
2022/05/22 00:34:19;;;;;;;6.15;2.60;;;;;;;;;;517849;28;1168;-87
2022/05/22 00:34:36;;;;;;;5.57;2.70;;;;;;;;;;517467;28;1435;-87
2022/05/22 00:34:52;;;;;;;5.57;2.67;;;;;;;;;;519208;28;1432;-87
2022/05/22 00:35:07;;;;;;;5.73;2.60;;;;;;;;;;518417;28;1442;-87
2022/05/22 00:35:23;;;;;;;5.38;2.53;;;;;;;;;;516088;28;1639;-87
2022/05/22 00:35:40;;;;;;;5.20;2.50;;;;;;;;;;518642;28;1388;-87
2022/05/22 00:35:55;;;;;;;6.07;2.55;;;;;;;;;;517021;28;1370;-87
2022/05/22 00:36:11;;;;;;;6.60;2.60;;;;;;;;;;514481;28;1358;-87
2022/05/22 00:36:26;;;;;;;5.43;2.30;;;;;;;;;;516104;28;1185;-87
2022/05/22 00:36:42;;;;;;;5.30;2.40;;;;;;;;;;517252;28;1526;-87
2022/05/22 00:36:58;;;;;;;5.40;2.60;;;;;;;;;;515951;28;886;-87
2022/05/22 00:37:13;;;;;;;5.10;2.50;;;;;;;;;;515722;28;1358;-87
2022/05/22 00:37:28;;;;;;;4.30;2.30;;;;;;;;;;516226;28;1472;-87
2022/05/22 00:37:44;;;;;;;6.03;2.50;;;;;;;;;;517680;28;1451;-87
2022/05/22 00:37:59;;;;;;;6.20;2.57;;;;;;;;;;519460;28;1333;-87
2022/05/22 00:38:15;;;;;;;4.72;2.60;;;;;;;;;;517485;28;1490;-87
2022/05/22 00:38:30;;;;;;;5.17;2.60;;;;;;;;;;517794;28;1717;-88
2022/05/22 00:38:45;;;;;;;4.70;2.47;;;;;;;;;;518811;28;1492;-87
2022/05/22 00:39:01;;;;;;;4.20;2.40;;;;;;;;;;517072;28;1504;-87
2022/05/22 00:39:17;;;;;;;4.10;2.47;;;;;;;;;;518083;28;1204;-87
2022/05/22 00:39:33;;;;;;;4.20;2.60;;;;;;;;;;517701;28;1519;-87
2022/05/22 00:39:49;;;;;;;5.88;2.60;;;;;;;;;;516098;28;1259;-88
2022/05/22 00:40:05;;;;;;;6.80;2.53;;;;;;;;;;516099;28;1267;-86
2022/05/22 00:40:20;;;;;;;5.30;2.40;;;;;;;;;;515929;28;1338;-87
2022/05/22 00:40:35;;;;;;;5.60;2.30;;;;;;;;;;515927;28;1205;-87
2022/05/22 00:40:51;;;;;;;5.70;2.50;;;;;;;;;;516108;28;953;-87
2022/05/22 00:41:07;;;;;;;5.13;2.67;;;;;;;;;;515106;28;1471;-87
2022/05/22 00:41:22;;;;;;;5.57;2.50;;;;;;;;;;518158;28;1293;-87
2022/05/22 00:41:39;;;;;;;5.22;2.50;;;;;;;;;;517228;28;1470;-88
2022/05/22 00:41:56;;;;;;;4.32;2.50;;;;;;;;;;518091;28;1230;-87
2022/05/22 00:42:18;;;;;;;7.07;2.60;;;;;;;;;;519452;28;1624;-87
2022/05/22 00:42:35;;;;;;;7.68;2.80;;;;;;;;;;517673;28;1426;-87
2022/05/22 00:42:50;;;;;;;7.00;2.85;;;;;;;;;;517823;28;1274;-87
2022/05/22 00:43:06;;;;;;;5.50;2.50;;;;;;;;;;518723;28;1740;-87
2022/05/22 00:43:28;;;;;;;5.83;2.50;;;;;;;;;;520007;28;1238;-87
2022/05/22 00:43:47;;;;;;;5.13;2.78;;;;;;;;;;521997;28;884;-87
2022/05/22 00:44:04;;;;;;;4.75;2.58;;;;;;;;;;520136;28;1274;-87
2022/05/22 00:44:21;;;;;;;4.47;2.60;;;;;;;;;;520227;28;1068;-87
2022/05/22 00:44:36;;;;;;;5.18;2.75;;;;;;;;;;522323;28;1218;-87
2022/05/22 00:44:53;;;;;;;6.82;2.80;;;;;;;;;;522176;28;1222;-87
2022/05/22 00:45:08;;;;;;;6.80;2.70;;;;;;;;;;521804;28;1453;-87
2022/05/22 00:45:24;;;;;;;7.22;2.60;;;;;;;;;;520095;28;1334;-87
2022/05/22 00:45:39;;;;;;;8.27;2.67;;;;;;;;;;518025;28;1160;-87
2022/05/22 00:45:56;;;;;;;6.13;2.80;;;;;;;;;;518050;28;1329;-87
2022/05/22 00:46:14;;;;;;;6.18;2.72;;;;;;;;;;515952;28;1614;-87
2022/05/22 00:46:30;;;;;;;5.95;2.47;;;;;;;;;;516060;28;996;-87
2022/05/22 00:46:45;;;;;;;5.22;2.50;;;;;;;;;;517856;28;1544;-87
2022/05/22 00:47:01;;;;;;;6.13;2.53;;;;;;;;;;517765;28;1471;-87
2022/05/22 00:47:16;;;;;;;5.85;2.50;;;;;;;;;;518997;28;862;-87
2022/05/22 00:47:32;;;;;;;4.80;2.50;;;;;;;;;;518500;28;1243;-87
2022/05/22 00:47:50;;;;;;;4.78;2.60;;;;;;;;;;517353;28;1546;-87
2022/05/22 00:48:06;;;;;;;4.47;2.58;;;;;;;;;;516964;28;1336;-86
2022/05/22 00:48:21;;;;;;;4.72;2.70;;;;;;;;;;516065;28;1196;-87
2022/05/22 00:48:38;;;;;;;5.57;2.67;;;;;;;;;;516248;28;996;-87
2022/05/22 00:49:18;;;;;;;5.75;2.60;;;;;;;;;;514816;28;1218;-87
2022/05/22 00:49:34;;;;;;;6.45;2.55;;;;;;;;;;516460;28;1229;-87
2022/05/22 00:49:51;;;;;;;7.10;2.70;;;;;;;;;;517368;28;1623;-87
2022/05/22 00:50:07;;;;;;;6.30;2.67;;;;;;;;;;518862;28;1475;-87
2022/05/22 00:50:22;;;;;;;6.15;2.60;;;;;;;;;;520095;28;1164;-87
2022/05/22 00:50:38;;;;;;;6.97;2.70;;;;;;;;;;517364;28;1451;-87
2022/05/22 00:50:59;;;;;;;6.60;2.70;;;;;;;;;;518615;28;1891;-86
2022/05/22 00:51:23;;;;;;;4.75;2.40;;;;;;;;;;519677;28;1493;-87
2022/05/22 00:51:53;;;;;;;5.97;2.65;;;;;;;;;;520621;28;1039;-87
2022/05/22 00:52:18;;;;;;;7.93;2.65;;;;;;;;;;519898;28;1233;-87
2022/05/22 00:52:43;;;;;;;6.22;2.80;;;;;;;;;;521129;28;972;-87
2022/05/22 00:52:59;;;;;;;5.15;2.40;;;;;;;;;;517739;28;1592;-87
2022/05/22 00:53:14;;;;;;;5.47;2.50;;;;;;;;;;517869;28;1132;-87
2022/05/22 00:53:32;;;;;;;5.40;2.40;;;;;;;;;;515669;28;1134;-87
2022/05/22 00:54:12;;;;;;;4.60;2.35;;;;;;;;;;513595;28;1923;-87
2022/05/22 00:54:34;;;;;;;5.97;2.50;;;;;;;;;;514575;28;1221;-87
2022/05/22 00:54:55;;;;;;;7.80;2.78;;;;;;;;;;516234;28;1479;-87
2022/05/22 00:55:14;;;;;;;6.70;2.50;;;;;;;;;;517144;28;1308;-87
2022/05/22 00:55:33;;;;;;;4.60;2.50;;;;;;;;;;519496;28;1234;-87
2022/05/22 00:55:48;;;;;;;4.95;2.70;;;;;;;;;;521832;28;1263;-87
2022/05/22 00:56:07;;;;;;;5.88;2.80;;;;;;;;;;521152;28;1622;-87
2022/05/22 00:56:26;;;;;;;6.43;2.80;;;;;;;;;;519962;28;1020;-87
2022/05/22 00:56:51;;;;;;;6.38;2.55;;;;;;;;;;521381;28;1465;-86
2022/05/22 00:57:11;;;;;;;5.53;2.40;;;;;;;;;;518597;28;1585;-87
2022/05/22 00:57:30;;;;;;;6.03;2.70;;;;;;;;;;519605;28;1461;-87
2022/05/22 00:57:51;;;;;;;6.85;2.70;;;;;;;;;;519353;28;1716;-88
2022/05/22 00:58:16;;;;;;;5.25;2.50;;;;;;;;;;517296;28;1709;-87
2022/05/22 00:58:32;;;;;;;5.40;2.70;;;;;;;;;;517119;28;1477;-87
2022/05/22 00:58:51;;;;;;;5.50;2.70;;;;;;;;;;515173;28;1437;-87
2022/05/22 00:59:12;;;;;;;5.10;2.50;;;;;;;;;;517396;28;1364;-87
2022/05/22 00:59:34;;;;;;;4.32;2.45;;;;;;;;;;515719;28;1364;-87
2022/05/22 00:59:53;;;;;;;4.72;2.72;;;;;;;;;;517864;28;1543;-87
2022/05/22 01:00:15;;;;;;;5.75;2.60;;;;;;;;;;519344;28;1447;-87
2022/05/22 01:00:35;;;;;;;6.93;2.70;;;;;;;;;;515662;28;1389;-87
2022/05/22 01:00:51;;;;;;;7.43;2.75;;;;;;;;;;517072;28;1324;-87
2022/05/22 01:01:06;;;;;;;5.15;2.50;;;;;;;;;;516614;28;1397;-88
2022/05/22 01:01:22;;;;;;;7.30;2.60;;;;;;;;;;517517;28;1400;-86
2022/05/22 01:01:38;;;;;;;6.80;2.65;;;;;;;;;;518014;28;1640;-88
2022/05/22 01:01:57;;;;;;;5.53;2.60;;;;;;;;;;519744;28;1307;-88
2022/05/22 01:02:15;;;;;;;7.63;2.70;;;;;;;;;;518035;28;1430;-87
2022/05/22 01:03:33;;;;;;;6.85;2.88;;;;;;;;;;511545;28;1454;-88
2022/05/22 01:03:48;;;;;;;5.45;2.92;;;;;;;;;;511128;29;1127;-86
2022/05/22 01:04:08;;;;;;;6.33;2.83;;;;;;;;;;510869;28;1504;-87
2022/05/22 01:04:27;;;;;;;7.53;2.78;;;;;;;;;;521441;28;1392;-87
2022/05/22 01:04:44;;;;;;;6.25;2.90;;;;;;;;;;519349;28;1494;-87
2022/05/22 01:05:00;;;;;;;5.97;2.80;;;;;;;;;;519635;28;1478;-87
2022/05/22 01:05:15;;;;;;;6.43;2.75;;;;;;;;;;517451;28;1698;-86
2022/05/22 01:05:31;;;;;;;6.80;2.70;;;;;;;;;;517896;28;830;-87
2022/05/22 01:05:47;;;;;;;5.30;2.92;;;;;;;;;;513904;28;1082;-87
2022/05/22 01:06:08;;;;;;;5.23;2.93;;;;;;;;;;516530;28;1377;-87
2022/05/22 01:06:26;;;;;;;5.88;2.70;;;;;;;;;;517807;28;1040;-87
2022/05/22 01:06:41;;;;;;;6.15;2.78;;;;;;;;;;521121;28;909;-88
2022/05/22 01:06:56;;;;;;;5.80;2.80;;;;;;;;;;519613;28;1426;-87
2022/05/22 01:07:13;;;;;;;4.40;2.60;;;;;;;;;;521272;28;1283;-87
2022/05/22 01:07:28;;;;;;;4.32;2.55;;;;;;;;;;522219;28;834;-87
2022/05/22 01:07:44;;;;;;;5.40;2.65;;;;;;;;;;519767;28;1238;-87
2022/05/22 01:08:00;;;;;;;6.03;2.70;;;;;;;;;;520108;28;829;-87
2022/05/22 01:08:16;;;;;;;6.68;2.70;;;;;;;;;;519685;28;1511;-87
2022/05/22 01:08:33;;;;;;;5.95;2.78;;;;;;;;;;519935;28;1149;-87
2022/05/22 01:08:49;;;;;;;5.45;2.88;;;;;;;;;;518809;28;1325;-87
2022/05/22 01:09:04;;;;;;;6.75;2.90;;;;;;;;;;517755;28;1455;-87
2022/05/22 01:09:20;;;;;;;5.57;2.73;;;;;;;;;;519202;28;1510;-87
2022/05/22 01:09:36;;;;;;;4.72;2.75;;;;;;;;;;518378;28;1503;-87
2022/05/22 01:09:53;;;;;;;5.20;2.80;;;;;;;;;;520091;28;1200;-87
2022/05/22 01:10:09;;;;;;;6.07;2.70;;;;;;;;;;519450;28;1387;-87
2022/05/22 01:10:32;;;;;;;5.87;2.70;;;;;;;;;;520058;28;920;-87
2022/05/22 01:11:04;;;;;;;6.30;2.90;;;;;;;;;;519504;28;1503;-87
2022/05/22 01:11:27;;;;;;;5.35;2.60;;;;;;;;;;519975;28;954;-87
2022/05/22 01:11:43;;;;;;;5.93;2.78;;;;;;;;;;520157;28;1456;-87
2022/05/22 01:12:04;;;;;;;6.70;2.90;;;;;;;;;;522081;28;1227;-88
2022/05/22 01:12:23;;;;;;;6.90;2.90;;;;;;;;;;521354;28;1497;-87
2022/05/22 01:12:42;;;;;;;6.65;2.90;;;;;;;;;;521738;28;1560;-87
2022/05/22 01:12:59;;;;;;;5.50;2.80;;;;;;;;;;519535;28;1441;-87
2022/05/22 01:13:19;;;;;;;5.28;2.75;;;;;;;;;;520702;28;1259;-87
2022/05/22 01:13:42;;;;;;;6.78;2.70;;;;;;;;;;519911;28;1246;-87
2022/05/22 01:14:11;;;;;;;6.07;2.63;;;;;;;;;;517749;28;1982;-87
2022/05/22 01:14:27;;;;;;;6.35;2.60;;;;;;;;;;515792;28;1326;-87
2022/05/22 01:14:44;;;;;;;6.40;2.72;;;;;;;;;;513880;28;1261;-87
2022/05/22 01:15:00;;;;;;;5.63;2.70;;;;;;;;;;517776;28;1515;-87
2022/05/22 01:15:16;;;;;;;5.38;2.72;;;;;;;;;;519931;28;1059;-87
2022/05/22 01:15:31;;;;;;;5.68;2.67;;;;;;;;;;517925;28;1557;-87
2022/05/22 01:15:46;;;;;;;5.00;2.50;;;;;;;;;;518833;28;1414;-87
2022/05/22 01:16:03;;;;;;;5.43;2.70;;;;;;;;;;519667;28;1262;-87
2022/05/22 01:16:19;;;;;;;5.57;2.85;;;;;;;;;;517712;28;1370;-87
2022/05/22 01:16:35;;;;;;;4.75;2.78;;;;;;;;;;517258;28;1346;-87
2022/05/22 01:16:50;;;;;;;6.25;2.97;;;;;;;;;;517340;28;926;-87
2022/05/22 01:17:10;;;;;;;6.77;2.90;;;;;;;;;;517836;28;1194;-87
2022/05/22 01:17:25;;;;;;;6.15;2.80;;;;;;;;;;518790;28;858;-87
2022/05/22 01:17:47;;;;;;;6.23;2.67;;;;;;;;;;517220;28;1562;-87
2022/05/22 01:18:03;;;;;;;4.32;2.65;;;;;;;;;;517750;28;1351;-87
2022/05/22 01:18:18;;;;;;;4.25;2.70;;;;;;;;;;520307;28;1581;-87
2022/05/22 01:18:46;;;;;;;5.83;2.50;;;;;;;;;;519514;28;1494;-87
2022/05/22 01:19:10;;;;;;;6.88;2.72;;;;;;;;;;519573;28;1502;-87
2022/05/22 01:19:25;;;;;;;4.50;2.70;;;;;;;;;;517520;28;1285;-87
2022/05/22 01:19:41;;;;;;;5.23;2.60;;;;;;;;;;517499;28;1545;-87
2022/05/22 01:19:59;;;;;;;8.13;2.75;;;;;;;;;;518217;28;1551;-87
2022/05/22 01:20:15;;;;;;;6.70;2.72;;;;;;;;;;518749;28;1403;-87
2022/05/22 01:20:30;;;;;;;5.28;2.55;;;;;;;;;;517083;28;1457;-87
2022/05/22 01:20:50;;;;;;;6.13;2.60;;;;;;;;;;517664;28;1402;-87
2022/05/22 01:21:12;;;;;;;6.00;2.80;;;;;;;;;;517827;28;1436;-88
2022/05/22 01:21:30;;;;;;;4.97;2.80;;;;;;;;;;517665;28;1506;-87
2022/05/22 01:21:54;;;;;;;4.90;2.70;;;;;;;;;;515455;28;1565;-87
2022/05/22 01:22:14;;;;;;;5.68;2.80;;;;;;;;;;513935;28;1520;-87
2022/05/22 01:22:29;;;;;;;6.43;2.72;;;;;;;;;;516155;28;1447;-87
2022/05/22 01:22:45;;;;;;;6.00;2.70;;;;;;;;;;517560;28;1352;-87
2022/05/22 01:23:00;;;;;;;6.28;2.90;;;;;;;;;;517944;28;861;-87
2022/05/22 01:23:17;;;;;;;5.93;2.70;;;;;;;;;;516067;28;1238;-87
2022/05/22 01:23:32;;;;;;;5.43;2.58;;;;;;;;;;515462;28;1547;-87
2022/05/22 01:23:50;;;;;;;5.37;2.70;;;;;;;;;;517833;28;1140;-87
2022/05/22 01:24:07;;;;;;;4.15;2.42;;;;;;;;;;517835;28;1385;-87
2022/05/22 01:24:22;;;;;;;3.42;2.35;;;;;;;;;;515316;28;1515;-87
2022/05/22 01:24:38;;;;;;;5.00;2.60;;;;;;;;;;515333;28;1641;-87
2022/05/22 01:24:55;;;;;;;7.03;2.80;;;;;;;;;;515516;28;1259;-87
2022/05/22 01:25:11;;;;;;;6.10;2.85;;;;;;;;;;513827;28;1208;-87
2022/05/22 01:25:26;;;;;;;5.53;2.80;;;;;;;;;;514071;28;830;-87
2022/05/22 01:25:42;;;;;;;5.83;2.70;;;;;;;;;;513671;28;1166;-87
2022/05/22 01:25:57;;;;;;;6.18;2.70;;;;;;;;;;513472;28;1743;-88
2022/05/22 01:26:13;;;;;;;5.90;2.70;;;;;;;;;;515138;28;1734;-88
2022/05/22 01:26:29;;;;;;;6.47;2.72;;;;;;;;;;516515;28;889;-87
2022/05/22 01:26:45;;;;;;;5.63;2.80;;;;;;;;;;515855;28;1363;-87
2022/05/22 01:27:03;;;;;;;4.80;2.85;;;;;;;;;;515967;28;1628;-87
2022/05/22 01:27:21;;;;;;;4.10;2.80;;;;;;;;;;517326;28;1439;-87
2022/05/22 01:27:38;;;;;;;5.25;2.78;;;;;;;;;;518879;28;1343;-87
2022/05/22 01:27:54;;;;;;;7.18;2.90;;;;;;;;;;517381;28;1401;-87
2022/05/22 01:28:12;;;;;;;7.93;2.95;;;;;;;;;;516188;28;1662;-87
2022/05/22 01:28:27;;;;;;;7.10;2.85;;;;;;;;;;513643;28;1557;-87
2022/05/22 01:28:43;;;;;;;5.70;2.87;;;;;;;;;;516922;28;1291;-87
2022/05/22 01:28:59;;;;;;;5.00;2.90;;;;;;;;;;515085;28;1344;-87
2022/05/22 01:29:15;;;;;;;5.03;3.00;;;;;;;;;;515567;28;1670;-87
2022/05/22 01:29:31;;;;;;;4.97;2.90;;;;;;;;;;515404;28;1600;-87
2022/05/22 01:29:46;;;;;;;6.00;3.00;;;;;;;;;;516793;28;945;-87
2022/05/22 01:30:05;;;;;;;6.90;3.00;;;;;;;;;;516902;28;1129;-87
2022/05/22 01:30:27;;;;;;;6.60;2.80;;;;;;;;;;518159;28;1244;-87
2022/05/22 01:30:42;;;;;;;5.65;2.80;;;;;;;;;;518930;28;1346;-88
2022/05/22 01:30:58;;;;;;;7.43;2.67;;;;;;;;;;520485;28;1479;-87
2022/05/22 01:31:13;;;;;;;7.55;2.65;;;;;;;;;;520596;28;1423;-87
2022/05/22 01:31:29;;;;;;;5.10;2.77;;;;;;;;;;517770;28;1547;-87
2022/05/22 01:31:44;;;;;;;4.80;2.83;;;;;;;;;;517575;28;1235;-87
2022/05/22 01:32:00;;;;;;;4.73;2.67;;;;;;;;;;519695;28;917;-87
2022/05/22 01:32:15;;;;;;;3.55;2.53;;;;;;;;;;518729;28;1451;-88
2022/05/22 01:32:35;;;;;;;3.77;2.60;;;;;;;;;;519385;28;1769;-87
2022/05/22 01:32:50;;;;;;;4.97;2.50;;;;;;;;;;516828;28;1421;-87
2022/05/22 01:33:06;;;;;;;5.90;2.70;;;;;;;;;;516087;28;1257;-87
2022/05/22 01:33:22;;;;;;;5.95;2.80;;;;;;;;;;518087;28;1249;-87
2022/05/22 01:33:38;;;;;;;5.65;2.55;;;;;;;;;;517373;28;1715;-87
2022/05/22 01:33:54;;;;;;;6.05;2.55;;;;;;;;;;519668;28;1914;-87
2022/05/22 01:34:11;;;;;;;5.90;2.63;;;;;;;;;;519519;28;1835;-86
2022/05/22 01:34:26;;;;;;;4.65;2.67;;;;;;;;;;517762;28;1514;-88
2022/05/22 01:34:42;;;;;;;3.97;2.60;;;;;;;;;;518274;28;1611;-87
2022/05/22 01:34:57;;;;;;;4.72;2.60;;;;;;;;;;518821;28;1291;-87
2022/05/22 01:35:18;;;;;;;5.03;2.77;;;;;;;;;;522134;28;802;-87
2022/05/22 01:35:35;;;;;;;5.07;2.75;;;;;;;;;;522680;28;1406;-86
2022/05/22 01:35:51;;;;;;;4.45;2.60;;;;;;;;;;523006;28;1521;-87
2022/05/22 01:36:08;;;;;;;5.28;2.53;;;;;;;;;;521307;28;1367;-87
2022/05/22 01:36:23;;;;;;;5.88;2.78;;;;;;;;;;518469;28;1224;-87
2022/05/22 01:36:39;;;;;;;6.85;2.78;;;;;;;;;;519540;28;1437;-87
2022/05/22 01:36:55;;;;;;;6.77;2.67;;;;;;;;;;521535;28;1264;-87
2022/05/22 01:37:10;;;;;;;4.60;2.50;;;;;;;;;;521404;28;1577;-87
2022/05/22 01:37:25;;;;;;;5.20;2.50;;;;;;;;;;520040;28;1295;-87
2022/05/22 01:37:42;;;;;;;5.18;2.60;;;;;;;;;;519504;28;1491;-87
2022/05/22 01:37:58;;;;;;;5.53;2.70;;;;;;;;;;517910;28;1389;-87
2022/05/22 01:38:13;;;;;;;5.15;2.60;;;;;;;;;;516427;28;1458;-87
2022/05/22 01:38:29;;;;;;;3.60;2.47;;;;;;;;;;518041;28;1076;-87
2022/05/22 01:38:44;;;;;;;3.92;2.70;;;;;;;;;;514948;28;1530;-87
2022/05/22 01:39:00;;;;;;;5.67;2.83;;;;;;;;;;515527;28;1509;-87
2022/05/22 01:39:15;;;;;;;5.72;2.75;;;;;;;;;;513850;28;1166;-87
2022/05/22 01:39:30;;;;;;;5.27;2.70;;;;;;;;;;515529;28;1507;-87
2022/05/22 01:39:46;;;;;;;5.75;2.70;;;;;;;;;;515321;28;1381;-87
2022/05/22 01:40:03;;;;;;;5.47;2.80;;;;;;;;;;515361;28;1590;-87
2022/05/22 01:40:19;;;;;;;4.97;2.83;;;;;;;;;;517597;28;1473;-87
2022/05/22 01:40:35;;;;;;;5.30;2.70;;;;;;;;;;516700;28;1226;-87
2022/05/22 01:40:50;;;;;;;6.15;2.70;;;;;;;;;;518030;28;1281;-87
2022/05/22 01:41:06;;;;;;;6.25;2.55;;;;;;;;;;517077;28;1487;-88
2022/05/22 01:41:21;;;;;;;5.30;2.30;;;;;;;;;;517463;28;1265;-87
2022/05/22 01:41:37;;;;;;;3.75;2.40;;;;;;;;;;515862;28;1526;-87
2022/05/22 01:41:52;;;;;;;4.27;2.40;;;;;;;;;;517905;28;1242;-87
2022/05/22 01:42:08;;;;;;;4.63;2.40;;;;;;;;;;516684;28;1479;-87
2022/05/22 01:42:23;;;;;;;6.85;2.88;;;;;;;;;;519550;28;1168;-87
2022/05/22 01:42:40;;;;;;;8.20;2.73;;;;;;;;;;519178;28;1621;-87
2022/05/22 01:42:55;;;;;;;6.75;2.53;;;;;;;;;;518569;28;1393;-87
2022/05/22 01:43:10;;;;;;;5.73;2.60;;;;;;;;;;519856;28;1532;-87
2022/05/22 01:43:26;;;;;;;5.20;2.60;;;;;;;;;;518098;28;1162;-87
2022/05/22 01:43:41;;;;;;;5.53;2.60;;;;;;;;;;518917;28;1447;-87
2022/05/22 01:43:57;;;;;;;6.20;2.57;;;;;;;;;;517858;28;1553;-87
2022/05/22 01:44:12;;;;;;;6.82;2.60;;;;;;;;;;519074;28;1546;-87
2022/05/22 01:44:27;;;;;;;5.63;2.70;;;;;;;;;;519270;28;1373;-87
2022/05/22 01:44:43;;;;;;;4.32;2.47;;;;;;;;;;518556;28;1448;-87
2022/05/22 01:44:58;;;;;;;5.47;2.50;;;;;;;;;;521408;28;1484;-87
2022/05/22 01:45:18;;;;;;;4.73;2.40;;;;;;;;;;519204;28;1168;-87
2022/05/22 01:45:34;;;;;;;4.80;2.50;;;;;;;;;;515584;28;1519;-87
2022/05/22 01:45:49;;;;;;;4.75;2.50;;;;;;;;;;517396;28;1495;-87
2022/05/22 01:46:05;;;;;;;4.97;2.60;;;;;;;;;;518227;28;1432;-86
2022/05/22 01:46:20;;;;;;;5.07;2.60;;;;;;;;;;517865;28;1353;-87